Skip Navigation LinksHome page > Weather > Current weather Skip Navigation Links

Current Weather

San Francisco International, San Francisco

For information only: do not use for flight planning or navigation.
Latest weather
Observation time Tuesday, September 30, 2014 3:56 PM PDT
Local time Tuesday, September 30, 2014 4:54 PM PDT
Flight conditions Visual Meteorological Conditions
Winds
Wind direction West-Northwest (290°)
Wind speed 15 mph
Visibility 10 mi.
Sky condition
Ceiling unlimited
Cloud layer few clouds 2,000 ft.
Cloud layer scattered clouds 20,000 ft.
Temperature 74°F
Dewpoint 59°F
Altimeter 29.87 in.Hg
Derived measurements
Relative humidity 60%
Density altitude 1272 ft.
Sea-level pressure 29.87 in.Hg
Remarks
Automated weather observing station with precipitation discriminator.
METAR KSFO 302256Z 29013KT 10SM FEW020 SCT200 23/15 A2987 RMK AO2 SLP115 T02330150

Settings

Location code

InnerDrive.Weather 4.0.5372.0 Release CLR 4.0.30319.34014
Copyright ©2014 Inner Drive Technology. All rights reserved. Portions Copyright ©1986-2014 David Braverman.

Find weather

Site navigation


Skip Navigation Links

Place info

Page info

PayPal - The safer, easier way to pay online!

Return home.

Copyright ©2014 Inner Drive Technology. Purveyors of fine, hand-crafted computer software. Page printed 2014-09-30T23:54:44 UTC.